createdAt,value
2023-02-14T00:00:33.486Z,9.77
2023-02-14T00:03:02.836Z,9.63
2023-02-14T00:05:36.989Z,9.05
2023-02-14T00:08:05.840Z,11.10
2023-02-14T00:10:49.636Z,9.93
2023-02-14T00:13:18.752Z,10.02
2023-02-14T00:15:48.921Z,10.38
2023-02-14T00:18:19.671Z,10.65
2023-02-14T00:20:48.694Z,10.50
2023-02-14T00:23:17.482Z,11.38
2023-02-14T00:25:49.263Z,10.52
2023-02-14T00:28:23.332Z,10.40
2023-02-14T00:30:53.636Z,9.73
2023-02-14T00:33:27.218Z,9.25
2023-02-14T00:35:57.935Z,9.35
2023-02-14T00:38:26.887Z,9.43
2023-02-14T00:40:56.364Z,10.88
2023-02-14T00:43:46.402Z,9.32
2023-02-14T00:46:23.925Z,8.75
2023-02-14T00:48:53.983Z,8.40
2023-02-14T00:51:26.194Z,9.55
2023-02-14T00:53:57.918Z,9.52
2023-02-14T00:56:35.373Z,9.63
2023-02-14T00:59:03.963Z,9.57
2023-02-14T01:01:37.288Z,10.35
2023-02-14T01:04:06.400Z,10.23
2023-02-14T01:06:34.942Z,9.75
2023-02-14T01:09:04.102Z,8.85
2023-02-14T01:11:36.116Z,9.48
2023-02-14T01:14:04.797Z,8.48
2023-02-14T01:16:33.573Z,10.63
2023-02-14T01:19:06.636Z,10.00
2023-02-14T01:21:36.065Z,9.88
2023-02-14T01:24:09.412Z,8.85
2023-02-14T01:26:43.762Z,8.95
2023-02-14T01:29:12.235Z,9.18
2023-02-14T01:31:45.173Z,8.95
2023-02-14T01:34:15.768Z,8.55
2023-02-14T01:36:53.601Z,8.00
2023-02-14T01:39:22.241Z,7.95
2023-02-14T01:41:54.295Z,8.02
2023-02-14T01:45:05.075Z,10.80
2023-02-14T01:47:41.885Z,10.15
2023-02-14T01:50:16.488Z,8.95
2023-02-14T01:52:49.006Z,9.57
2023-02-14T01:55:21.115Z,8.98
2023-02-14T01:57:52.198Z,9.48
2023-02-14T02:00:42.382Z,8.93
2023-02-14T02:03:12.255Z,9.05
2023-02-14T02:05:47.083Z,8.18
2023-02-14T02:08:16.192Z,8.18
2023-02-14T02:10:47.941Z,8.90
2023-02-14T02:13:24.978Z,8.63
2023-02-14T02:16:14.560Z,9.18
2023-02-14T02:18:55.928Z,9.27
2023-02-14T02:21:58.896Z,10.25
2023-02-14T02:24:41.029Z,11.07
2023-02-14T02:27:49.237Z,10.65
2023-02-14T02:31:22.604Z,9.82
2023-02-14T02:34:28.882Z,10.25
2023-02-14T02:37:12.612Z,10.80
2023-02-14T02:39:58.832Z,10.30
2023-02-14T02:42:39.922Z,11.10
2023-02-14T02:45:15.186Z,9.57
2023-02-14T02:47:55.770Z,10.68
2023-02-14T02:50:46.644Z,9.55
2023-02-14T02:53:25.721Z,9.75
2023-02-14T02:56:19.415Z,10.18
2023-02-14T02:58:56.927Z,10.13
2023-02-14T03:01:29.745Z,10.13
2023-02-14T03:04:26.090Z,10.80
2023-02-14T03:06:55.466Z,10.00
2023-02-14T03:09:59.170Z,10.30
2023-02-14T03:13:03.066Z,10.85
2023-02-14T03:16:06.671Z,9.90
2023-02-14T03:18:55.173Z,9.75
2023-02-14T03:21:31.756Z,9.10
2023-02-14T03:24:08.948Z,11.18
2023-02-14T03:26:48.737Z,10.23
2023-02-14T03:29:37.629Z,10.02
2023-02-14T03:32:13.325Z,10.30
2023-02-14T03:35:05.387Z,10.32
2023-02-14T03:40:38.180Z,10.25
2023-02-14T03:43:15.363Z,10.18
2023-02-14T03:45:57.619Z,8.70
2023-02-14T03:48:28.804Z,10.65
2023-02-14T03:51:02.917Z,8.95
2023-02-14T03:54:07.245Z,11.20
2023-02-14T03:57:04.172Z,10.00
2023-02-14T03:59:38.086Z,10.30
2023-02-14T04:02:19.254Z,10.07
2023-02-14T04:05:03.278Z,10.20
2023-02-14T04:07:44.965Z,9.65
2023-02-14T04:10:16.470Z,11.48
2023-02-14T04:12:46.070Z,11.55
2023-02-14T04:15:19.809Z,11.63
2023-02-14T04:18:11.188Z,11.20
2023-02-14T04:20:50.787Z,11.93
2023-02-14T04:23:19.307Z,11.98
2023-02-14T04:25:53.639Z,13.45
2023-02-14T04:28:22.547Z,12.30
2023-02-14T04:30:52.909Z,12.20
2023-02-14T04:33:25.108Z,13.27
2023-02-14T04:35:56.578Z,13.75
2023-02-14T04:38:28.136Z,11.93
2023-02-14T04:40:56.920Z,12.48
2023-02-14T04:43:28.504Z,11.38
2023-02-14T04:45:59.482Z,12.63
2023-02-14T04:48:31.360Z,11.73
2023-02-14T04:51:02.528Z,10.90
2023-02-14T04:53:31.506Z,11.35
2023-02-14T04:56:00.218Z,13.85
2023-02-14T04:58:31.654Z,11.77
2023-02-14T05:01:04.709Z,13.73
2023-02-14T05:03:33.186Z,12.75
2023-02-14T05:06:01.884Z,12.35
2023-02-14T05:08:30.487Z,12.55
2023-02-14T05:10:59.904Z,11.80
2023-02-14T05:13:32.018Z,10.98
2023-02-14T05:16:04.935Z,11.48
2023-02-14T05:18:36.362Z,12.10
2023-02-14T05:21:05.385Z,13.02
2023-02-14T05:23:33.846Z,13.48
2023-02-14T05:26:02.320Z,11.73
2023-02-14T05:28:30.897Z,13.60
2023-02-14T05:30:59.738Z,11.52
2023-02-14T05:33:30.316Z,12.23
2023-02-14T05:36:00.483Z,10.85
2023-02-14T05:38:28.997Z,11.80
2023-02-14T05:40:57.497Z,12.75
2023-02-14T05:43:26.446Z,12.88
2023-02-14T05:45:55.537Z,11.82
2023-02-14T05:48:24.890Z,13.23
2023-02-14T05:50:54.761Z,11.35
2023-02-14T05:53:23.186Z,11.98
2023-02-14T05:55:51.700Z,12.73
2023-02-14T05:58:23.115Z,12.65
2023-02-14T06:00:51.886Z,12.75
2023-02-14T06:03:23.957Z,15.25
2023-02-14T06:05:53.562Z,15.02
2023-02-14T06:08:24.190Z,12.93
2023-02-14T06:10:55.774Z,17.85
2023-02-14T06:13:25.094Z,18.20
2023-02-14T06:15:58.616Z,18.08
2023-02-14T06:18:29.707Z,16.00
2023-02-14T06:20:59.288Z,17.27
2023-02-14T06:26:36.374Z,17.25
2023-02-14T06:29:13.115Z,17.42
2023-02-14T06:31:58.672Z,22.17
2023-02-14T06:34:29.783Z,23.40
2023-02-14T06:37:00.951Z,16.77
2023-02-14T06:39:34.452Z,16.70
2023-02-14T06:42:06.384Z,15.77
2023-02-14T06:44:41.137Z,15.15
2023-02-14T06:47:15.686Z,14.68
2023-02-14T06:49:47.360Z,16.02
2023-02-14T06:52:21.943Z,14.35
2023-02-14T06:54:51.943Z,14.05
2023-02-14T06:57:20.464Z,13.50
2023-02-14T06:59:52.045Z,15.90
2023-02-14T07:02:24.357Z,15.65
2023-02-14T07:05:02.322Z,15.95
2023-02-14T07:07:33.703Z,16.63
2023-02-14T07:10:04.021Z,15.82
2023-02-14T07:12:35.422Z,16.17
2023-02-14T07:15:03.803Z,15.57
2023-02-14T07:17:32.189Z,15.27
2023-02-14T07:20:00.562Z,17.02
2023-02-14T07:22:30.409Z,15.32
2023-02-14T07:24:59.833Z,15.45
2023-02-14T07:27:33.475Z,14.13
2023-02-14T07:30:02.361Z,13.00
2023-02-14T07:36:25.365Z,13.75
2023-02-14T07:38:57.080Z,13.18
2023-02-14T07:41:26.714Z,14.40
2023-02-14T07:44:00.450Z,12.98
2023-02-14T07:46:32.337Z,12.68
2023-02-14T07:49:01.118Z,13.00
2023-02-14T07:51:31.221Z,13.43
2023-02-14T07:54:33.169Z,14.30
2023-02-14T08:00:13.795Z,13.40
2023-02-14T08:02:52.513Z,13.00
2023-02-14T08:05:42.902Z,12.50
2023-02-14T08:15:55.480Z,11.30
2023-02-14T08:18:30.257Z,12.05
2023-02-14T08:20:59.592Z,11.73
2023-02-14T08:23:28.738Z,13.13
2023-02-14T08:26:03.615Z,13.45
2023-02-14T08:28:35.023Z,13.32
2023-02-14T08:31:10.292Z,12.23
2023-02-14T08:47:38.531Z,11.87
2023-02-14T08:50:10.326Z,10.20
2023-02-14T08:52:40.261Z,10.43
2023-02-14T08:55:09.155Z,11.90
2023-02-14T08:57:37.759Z,14.57
2023-02-14T09:00:07.415Z,14.15
2023-02-14T09:02:37.877Z,12.52
2023-02-14T09:05:08.178Z,10.25
2023-02-14T09:07:36.785Z,13.25
2023-02-14T09:10:05.553Z,13.30
2023-02-14T09:12:40.340Z,14.13
2023-02-14T09:15:11.396Z,13.90
2023-02-14T09:17:44.224Z,12.93
2023-02-14T09:20:14.422Z,15.88
2023-02-14T09:22:43.587Z,12.15
2023-02-14T09:25:12.828Z,12.68
2023-02-14T09:27:41.675Z,12.95
2023-02-14T09:30:11.904Z,11.35
2023-02-14T09:32:41.974Z,10.73
2023-02-14T09:35:10.452Z,15.00
2023-02-14T09:37:56.008Z,13.73
2023-02-14T09:40:25.691Z,11.70
2023-02-14T09:43:18.903Z,13.07
2023-02-14T09:45:54.487Z,11.82
2023-02-14T09:48:30.305Z,11.35
2023-02-14T09:51:02.582Z,12.10
2023-02-14T09:53:34.442Z,11.13
2023-02-14T09:56:10.316Z,10.98
2023-02-14T09:58:47.401Z,11.00
2023-02-14T10:01:22.683Z,13.77
2023-02-14T10:04:04.526Z,13.10
2023-02-14T10:06:50.519Z,13.63
2023-02-14T10:09:44.519Z,13.05
2023-02-14T10:12:21.009Z,12.50
2023-02-14T10:14:50.158Z,12.52
2023-02-14T10:17:23.488Z,12.55
2023-02-14T10:19:58.021Z,12.63
2023-02-14T10:22:34.187Z,13.00
2023-02-14T10:25:07.400Z,12.77
2023-02-14T10:27:39.725Z,11.38
2023-02-14T10:30:14.945Z,12.35
2023-02-14T10:32:49.695Z,12.00
2023-02-14T10:35:35.190Z,12.45
2023-02-14T10:38:17.404Z,14.88
2023-02-14T10:41:08.617Z,12.70
2023-02-14T10:43:46.894Z,11.75
2023-02-14T10:46:24.461Z,12.80
2023-02-14T10:49:02.253Z,12.52
2023-02-14T10:51:40.033Z,12.38
2023-02-14T10:54:19.985Z,12.90
2023-02-14T10:56:52.541Z,12.80
2023-02-14T10:59:26.749Z,12.68
2023-02-14T11:01:57.242Z,12.77
2023-02-14T11:04:26.762Z,11.60
2023-02-14T11:06:56.641Z,12.85
2023-02-14T11:09:25.250Z,13.30
2023-02-14T11:11:56.746Z,12.90
2023-02-14T11:14:28.805Z,13.07
2023-02-14T11:16:58.801Z,12.43
2023-02-14T11:19:30.615Z,13.07
2023-02-14T11:22:02.689Z,13.90
2023-02-14T11:24:34.945Z,12.88
2023-02-14T11:27:06.350Z,14.60
2023-02-14T11:29:37.659Z,14.05
2023-02-14T11:32:12.221Z,14.27
2023-02-14T11:34:42.730Z,13.35
2023-02-14T11:37:31.571Z,13.60
2023-02-14T11:40:02.385Z,12.45
2023-02-14T11:42:39.522Z,14.45
2023-02-14T11:45:09.034Z,12.90
2023-02-14T11:47:43.068Z,14.88
2023-02-14T11:50:24.871Z,14.85
2023-02-14T11:52:57.645Z,14.55
2023-02-14T11:55:29.495Z,13.30
2023-02-14T11:57:59.053Z,14.10
2023-02-14T12:00:31.291Z,14.80
2023-02-14T12:03:03.157Z,13.82
2023-02-14T12:05:34.964Z,13.68
2023-02-14T12:08:08.154Z,15.13
2023-02-14T12:10:38.018Z,13.95
2023-02-14T12:13:26.750Z,14.65
2023-02-14T12:15:57.188Z,14.65
2023-02-14T12:19:01.008Z,14.30
2023-02-14T12:21:42.373Z,12.82
2023-02-14T12:24:24.696Z,14.73
2023-02-14T12:27:01.750Z,13.60
2023-02-14T12:29:35.486Z,14.57
2023-02-14T12:32:22.482Z,14.30
2023-02-14T12:34:51.669Z,16.67
2023-02-14T12:37:32.219Z,13.75
2023-02-14T12:40:12.130Z,14.40
2023-02-14T12:43:02.716Z,14.60
2023-02-14T12:45:57.966Z,14.10
2023-02-14T12:48:38.142Z,13.73
2023-02-14T12:51:11.188Z,14.25
2023-02-14T12:53:57.229Z,13.55
2023-02-14T12:56:41.173Z,13.73
2023-02-14T12:59:25.917Z,13.60
2023-02-14T13:02:26.844Z,13.77
2023-02-14T13:05:07.847Z,14.63
2023-02-14T13:07:57.229Z,13.63
2023-02-14T13:10:37.958Z,13.95
2023-02-14T13:13:16.440Z,13.55
2023-02-14T13:15:54.688Z,12.93
2023-02-14T13:18:34.926Z,13.50
2023-02-14T13:21:10.064Z,13.07
2023-02-14T13:23:41.649Z,14.93
2023-02-14T13:26:15.706Z,14.07
2023-02-14T13:28:51.784Z,13.35
2023-02-14T13:31:21.546Z,14.18
2023-02-14T13:33:53.306Z,15.52
2023-02-14T13:36:22.556Z,16.63
2023-02-14T13:41:29.011Z,17.50
2023-02-14T13:44:02.217Z,14.65
2023-02-14T13:46:51.971Z,14.75
2023-02-14T13:49:30.587Z,15.57
2023-02-14T13:52:01.241Z,15.85
2023-02-14T13:54:38.853Z,16.20
2023-02-14T13:57:26.969Z,15.00
2023-02-14T14:00:44.050Z,14.90
2023-02-14T14:03:17.313Z,15.32
2023-02-14T14:06:06.276Z,14.43
2023-02-14T14:08:42.916Z,15.05
2023-02-14T14:11:32.034Z,15.45
2023-02-14T14:14:02.698Z,15.20
2023-02-14T14:16:35.012Z,14.45
2023-02-14T14:19:10.764Z,15.35
2023-02-14T14:21:40.443Z,15.25
2023-02-14T14:24:23.498Z,15.48
2023-02-14T14:26:59.296Z,15.60
2023-02-14T14:29:31.821Z,14.77
2023-02-14T14:32:01.237Z,14.40
2023-02-14T14:34:31.103Z,14.73
2023-02-14T14:37:06.908Z,15.25
2023-02-14T14:39:36.989Z,14.98
2023-02-14T14:42:10.994Z,15.18
2023-02-14T14:44:47.673Z,16.60
2023-02-14T14:47:24.441Z,15.43
2023-02-14T14:49:58.907Z,15.45
2023-02-14T14:52:37.902Z,14.80
2023-02-14T14:55:11.884Z,16.40
2023-02-14T14:57:41.160Z,20.10
2023-02-14T15:00:24.313Z,16.23
2023-02-14T15:03:04.965Z,13.50
2023-02-14T15:05:37.150Z,16.23
2023-02-14T15:08:21.633Z,16.00
2023-02-14T15:10:54.353Z,15.43
2023-02-14T15:13:46.608Z,15.70
2023-02-14T15:16:19.713Z,14.80
2023-02-14T15:18:48.922Z,15.80
2023-02-14T15:21:19.204Z,15.90
2023-02-14T15:23:47.829Z,17.90
2023-02-14T15:26:19.935Z,16.55
2023-02-14T15:28:56.748Z,17.38
2023-02-14T15:31:29.487Z,17.90
2023-02-14T15:34:00.114Z,17.25
2023-02-14T15:36:31.608Z,18.38
2023-02-14T15:39:01.799Z,17.00
2023-02-14T15:41:30.309Z,17.42
2023-02-14T15:43:59.340Z,18.75
2023-02-14T15:46:33.425Z,19.45
2023-02-14T15:49:10.054Z,19.08
2023-02-14T15:51:40.792Z,18.88
2023-02-14T15:54:19.439Z,19.42
2023-02-14T15:56:50.401Z,19.08
2023-02-14T15:59:21.052Z,20.73
2023-02-14T16:01:55.833Z,21.05
2023-02-14T16:04:27.281Z,19.83
2023-02-14T16:07:17.461Z,20.27
2023-02-14T16:09:45.971Z,19.02
2023-02-14T16:12:31.643Z,22.27
2023-02-14T16:15:11.498Z,21.92
2023-02-14T16:17:44.101Z,22.75
2023-02-14T16:20:25.389Z,20.70
2023-02-14T16:23:10.293Z,20.08
2023-02-14T16:25:41.603Z,20.65
2023-02-14T16:28:09.977Z,20.40
2023-02-14T16:30:39.394Z,20.65
2023-02-14T16:33:08.464Z,19.70
2023-02-14T16:35:36.750Z,21.38
2023-02-14T16:38:06.350Z,22.35
2023-02-14T16:40:34.774Z,24.10
2023-02-14T16:43:04.526Z,23.58
2023-02-14T16:45:32.877Z,25.25
2023-02-14T16:48:01.108Z,25.90
2023-02-14T16:50:29.445Z,22.38
2023-02-14T16:52:58.390Z,22.58
2023-02-14T16:55:30.066Z,23.40
2023-02-14T16:58:01.750Z,22.55
2023-02-14T17:00:30.063Z,22.15
2023-02-14T17:03:04.538Z,22.08
2023-02-14T17:05:34.005Z,20.73
2023-02-14T17:08:02.931Z,21.35
2023-02-14T17:10:34.574Z,22.67
2023-02-14T17:13:05.155Z,21.83
2023-02-14T17:15:34.869Z,21.05
2023-02-14T17:18:08.494Z,23.02
2023-02-14T17:20:37.939Z,24.80
2023-02-14T17:23:06.303Z,31.63
2023-02-14T17:25:36.759Z,26.60
2023-02-14T17:28:05.336Z,23.83
2023-02-14T17:30:37.324Z,26.25
2023-02-14T17:33:06.405Z,28.02
2023-02-14T17:35:35.480Z,32.45
2023-02-14T17:38:03.735Z,28.77
2023-02-14T17:40:32.530Z,23.60
2023-02-14T17:43:02.361Z,23.10
2023-02-14T17:45:30.744Z,24.60
2023-02-14T17:48:02.401Z,24.80
2023-02-14T17:50:30.766Z,25.27
2023-02-14T17:52:59.113Z,25.20
2023-02-14T17:55:27.317Z,24.75
2023-02-14T17:57:55.622Z,24.42
2023-02-14T18:00:25.612Z,25.05
2023-02-14T18:02:56.981Z,25.58
2023-02-14T18:05:25.244Z,23.65
2023-02-14T18:07:53.492Z,29.88
2023-02-14T18:10:24.974Z,29.75
2023-02-14T18:12:53.165Z,32.30
2023-02-14T18:15:21.490Z,31.08
2023-02-14T18:17:58.175Z,29.10
2023-02-14T18:20:31.065Z,29.08
2023-02-14T18:23:07.489Z,27.65
2023-02-14T18:25:41.220Z,27.90
2023-02-14T18:31:09.726Z,28.85
2023-02-14T18:33:50.146Z,29.92
2023-02-14T18:36:21.738Z,28.00
2023-02-14T18:39:01.990Z,29.48
2023-02-14T18:41:41.060Z,29.15
2023-02-14T18:44:23.712Z,29.40
2023-02-14T18:46:52.729Z,27.83
2023-02-14T18:49:30.154Z,28.60
2023-02-14T18:52:07.041Z,52.65
2023-02-14T18:54:41.218Z,34.33
2023-02-14T18:57:12.013Z,40.90
2023-02-14T18:59:45.325Z,41.97
2023-02-14T19:02:14.483Z,30.60
2023-02-14T19:04:59.110Z,31.27
2023-02-14T19:07:44.144Z,41.55
2023-02-14T19:10:16.843Z,33.00
2023-02-14T19:12:48.682Z,30.13
2023-02-14T19:15:19.404Z,29.77
2023-02-14T19:17:54.757Z,32.92
2023-02-14T19:20:53.171Z,27.48
2023-02-14T19:23:40.723Z,29.10
2023-02-14T19:26:30.013Z,30.40
2023-02-14T19:29:27.046Z,28.10
2023-02-14T19:32:45.408Z,28.70
2023-02-14T19:38:57.834Z,29.27
2023-02-14T19:41:46.287Z,29.58
2023-02-14T19:44:20.698Z,29.35
2023-02-14T19:46:50.296Z,27.90
2023-02-14T19:49:47.269Z,27.98
2023-02-14T19:52:34.527Z,27.25
2023-02-14T19:55:41.666Z,28.75
2023-02-14T19:58:33.949Z,28.20
2023-02-14T20:01:30.420Z,31.63
2023-02-14T20:04:26.750Z,30.33
2023-02-14T20:07:21.789Z,29.25
2023-02-14T20:16:22.230Z,30.75
2023-02-14T20:19:26.131Z,30.92
2023-02-14T20:22:03.707Z,31.65
2023-02-14T20:24:59.153Z,29.38
2023-02-14T20:27:59.798Z,29.42
2023-02-14T20:30:40.230Z,30.83
2023-02-14T20:33:30.258Z,30.05
2023-02-14T20:36:17.908Z,31.50
2023-02-14T20:39:01.096Z,31.90
2023-02-14T20:41:51.832Z,31.60
2023-02-14T20:44:36.101Z,30.40
2023-02-14T20:47:25.285Z,29.13
2023-02-14T20:49:58.166Z,30.70
2023-02-14T20:52:41.597Z,32.13
2023-02-14T20:58:35.594Z,30.13
2023-02-14T21:01:44.170Z,29.58
2023-02-14T21:04:32.396Z,31.05
2023-02-14T21:07:10.661Z,33.30
2023-02-14T21:09:49.709Z,30.90
2023-02-14T21:12:36.995Z,30.90
2023-02-14T21:15:20.740Z,28.70
2023-02-14T21:17:58.198Z,29.25
2023-02-14T21:20:43.294Z,30.77
2023-02-14T21:23:31.676Z,30.30
2023-02-14T21:26:33.613Z,30.63
2023-02-14T21:29:12.833Z,26.50
2023-02-14T21:32:03.640Z,30.65
2023-02-14T21:34:57.994Z,29.05
2023-02-14T21:38:03.957Z,28.73
2023-02-14T21:41:07.800Z,28.95
2023-02-14T21:43:56.763Z,29.83
2023-02-14T21:46:31.185Z,29.08
2023-02-14T21:49:26.941Z,30.25
2023-02-14T21:52:09.667Z,29.42
2023-02-14T21:55:07.434Z,31.95
2023-02-14T21:57:42.769Z,31.52
2023-02-14T22:03:34.821Z,29.80
2023-02-14T22:06:18.846Z,32.88
2023-02-14T22:08:58.611Z,29.65
2023-02-14T22:11:45.930Z,33.80
2023-02-14T22:14:34.519Z,31.15
2023-02-14T22:17:26.591Z,32.67
2023-02-14T22:20:17.397Z,32.60
2023-02-14T22:23:24.532Z,32.10
2023-02-14T22:26:26.804Z,29.20
2023-02-14T22:29:29.622Z,32.47
2023-02-14T22:32:11.340Z,34.75
2023-02-14T22:38:08.485Z,30.75
2023-02-14T22:41:02.087Z,31.75
2023-02-14T22:54:16.809Z,31.77
2023-02-14T22:56:55.421Z,29.13
2023-02-14T22:59:48.109Z,32.63
2023-02-14T23:02:17.688Z,29.25
2023-02-14T23:04:52.412Z,31.25
2023-02-14T23:07:46.761Z,31.10
2023-02-14T23:10:39.205Z,30.63
2023-02-14T23:16:45.913Z,33.78
2023-02-14T23:19:47.288Z,32.13
2023-02-14T23:22:31.347Z,31.17
2023-02-14T23:25:23.639Z,33.35
2023-02-14T23:31:11.031Z,28.75
2023-02-14T23:33:55.098Z,31.88
2023-02-14T23:36:35.732Z,35.20
2023-02-14T23:42:14.198Z,34.47
2023-02-14T23:48:32.722Z,32.70
2023-02-14T23:51:23.920Z,32.88
2023-02-14T23:54:21.989Z,34.55
